createdAt,value
2023-01-18T00:01:14.159Z,70.10
2023-01-18T00:03:42.269Z,70.20
2023-01-18T00:06:10.918Z,70.30
2023-01-18T00:08:39.878Z,70.40
2023-01-18T00:11:15.511Z,70.30
2023-01-18T00:13:43.707Z,70.30
2023-01-18T00:16:14.567Z,70.10
2023-01-18T00:18:42.606Z,70.00
2023-01-18T00:21:12.245Z,70.00
2023-01-18T00:23:39.921Z,70.00
2023-01-18T00:26:09.829Z,69.90
2023-01-18T00:28:38.584Z,69.90
2023-01-18T00:31:12.492Z,69.80
2023-01-18T00:33:42.841Z,70.00
2023-01-18T00:36:11.327Z,70.00
2023-01-18T00:38:38.589Z,70.10
2023-01-18T00:41:06.069Z,70.10
2023-01-18T00:43:39.656Z,70.00
2023-01-18T00:46:12.532Z,70.00
2023-01-18T00:48:41.230Z,70.00
2023-01-18T00:51:11.620Z,70.00
2023-01-18T00:53:39.717Z,69.90
2023-01-18T00:56:09.742Z,69.80
2023-01-18T00:58:37.509Z,69.80
2023-01-18T01:01:06.667Z,69.80
2023-01-18T01:03:54.615Z,69.80
2023-01-18T01:06:45.644Z,69.90
2023-01-18T01:09:19.608Z,69.90
2023-01-18T01:12:07.057Z,69.90
2023-01-18T01:14:56.027Z,69.80
2023-01-18T01:17:42.282Z,70.00
2023-01-18T01:20:29.076Z,70.00
2023-01-18T01:23:15.178Z,70.00
2023-01-18T01:26:01.249Z,70.00
2023-01-18T01:28:28.669Z,69.90
2023-01-18T01:30:58.429Z,69.90
2023-01-18T01:33:26.467Z,70.00
2023-01-18T01:35:59.696Z,70.10
2023-01-18T01:38:27.393Z,70.00
2023-01-18T01:41:02.013Z,69.90
2023-01-18T01:43:44.962Z,69.70
2023-01-18T01:46:28.003Z,69.50
2023-01-18T01:49:13.824Z,69.60
2023-01-18T01:51:48.475Z,69.80
2023-01-18T01:54:18.075Z,69.70
2023-01-18T01:56:47.543Z,69.80
2023-01-18T01:59:16.182Z,69.80
2023-01-18T02:01:44.423Z,69.80
2023-01-18T02:04:12.326Z,69.90
2023-01-18T02:06:40.064Z,69.90
2023-01-18T02:09:10.149Z,69.90
2023-01-18T02:11:37.912Z,69.80
2023-01-18T02:14:10.112Z,69.80
2023-01-18T02:17:08.761Z,69.80
2023-01-18T02:20:19.398Z,69.70
2023-01-18T02:23:17.841Z,69.60
2023-01-18T02:26:22.457Z,69.50
2023-01-18T02:29:24.101Z,69.40
2023-01-18T02:32:02.888Z,69.60
2023-01-18T02:34:41.984Z,69.50
2023-01-18T02:37:20.841Z,69.60
2023-01-18T02:39:47.981Z,69.70
2023-01-18T02:42:38.321Z,69.60
2023-01-18T02:45:35.817Z,69.70
2023-01-18T02:48:04.392Z,69.80
2023-01-18T02:50:31.992Z,69.80
2023-01-18T02:52:59.468Z,69.80
2023-01-18T02:55:41.574Z,69.70
2023-01-18T02:58:21.748Z,69.70
2023-01-18T03:00:56.049Z,69.70
2023-01-18T03:03:25.634Z,69.70
2023-01-18T03:05:58.328Z,69.70
2023-01-18T03:08:38.669Z,69.80
2023-01-18T03:11:11.368Z,69.80
2023-01-18T03:13:41.400Z,69.90
2023-01-18T03:16:22.774Z,70.00
2023-01-18T03:19:01.355Z,70.20
2023-01-18T03:21:45.540Z,70.10
2023-01-18T03:24:14.583Z,70.20
2023-01-18T03:26:51.056Z,70.20
2023-01-18T03:29:39.123Z,70.30
2023-01-18T03:32:33.804Z,70.30
2023-01-18T03:35:09.363Z,70.40
2023-01-18T03:37:45.897Z,70.40
2023-01-18T03:40:18.106Z,70.30
2023-01-18T03:42:57.227Z,70.30
2023-01-18T03:45:37.902Z,70.50
2023-01-18T03:48:08.208Z,70.60
2023-01-18T03:50:53.746Z,70.60
2023-01-18T03:53:40.983Z,70.40
2023-01-18T03:56:21.961Z,70.20
2023-01-18T03:58:54.057Z,70.20
2023-01-18T04:01:21.782Z,70.20
2023-01-18T04:03:49.283Z,70.40
2023-01-18T04:06:16.864Z,70.70
2023-01-18T04:08:44.201Z,70.70
2023-01-18T04:11:11.557Z,70.60
2023-01-18T04:13:39.160Z,70.50
2023-01-18T04:16:07.008Z,70.50
2023-01-18T04:18:34.320Z,70.60
2023-01-18T04:21:01.642Z,70.60
2023-01-18T04:23:28.893Z,70.60
2023-01-18T04:25:56.197Z,70.50
2023-01-18T04:28:27.427Z,70.40
2023-01-18T04:30:56.103Z,70.50
2023-01-18T04:33:26.653Z,70.40
2023-01-18T04:35:54.313Z,70.40
2023-01-18T04:38:22.476Z,70.40
2023-01-18T04:40:50.617Z,70.50
2023-01-18T04:43:17.973Z,70.50
2023-01-18T04:45:55.869Z,70.40
2023-01-18T04:48:24.464Z,70.30
2023-01-18T04:50:52.326Z,70.30
2023-01-18T04:53:20.038Z,70.60
2023-01-18T04:55:47.760Z,70.50
2023-01-18T04:58:15.340Z,70.50
2023-01-18T05:00:43.058Z,70.50
2023-01-18T05:03:12.103Z,70.50
2023-01-18T05:05:40.479Z,70.60
2023-01-18T05:08:07.702Z,70.60
2023-01-18T05:10:35.216Z,70.60
2023-01-18T05:13:03.437Z,70.80
2023-01-18T05:15:30.884Z,70.80
2023-01-18T05:17:58.464Z,70.90
2023-01-18T05:20:25.846Z,70.90
2023-01-18T05:22:53.132Z,70.90
2023-01-18T05:25:20.533Z,70.90
2023-01-18T05:27:47.952Z,71.10
2023-01-18T05:30:15.877Z,71.20
2023-01-18T05:32:43.100Z,71.30
2023-01-18T05:35:10.904Z,71.50
2023-01-18T05:37:38.498Z,71.40
2023-01-18T05:40:06.889Z,71.40
2023-01-18T05:42:34.203Z,71.50
2023-01-18T05:45:01.854Z,71.60
2023-01-18T05:47:29.291Z,71.70
2023-01-18T05:49:57.814Z,71.70
2023-01-18T05:52:25.295Z,71.70
2023-01-18T05:54:52.630Z,71.60
2023-01-18T05:57:20.096Z,71.80
2023-01-18T05:59:47.800Z,72.00
2023-01-18T06:02:15.246Z,72.30
2023-01-18T06:04:44.248Z,72.40
2023-01-18T06:07:11.812Z,72.40
2023-01-18T06:09:39.269Z,72.50
2023-01-18T06:12:07.164Z,72.60
2023-01-18T06:14:34.532Z,72.80
2023-01-18T06:17:01.871Z,72.80
2023-01-18T06:19:29.225Z,72.90
2023-01-18T06:21:56.541Z,73.00
2023-01-18T06:24:24.133Z,73.10
2023-01-18T06:26:51.592Z,73.20
2023-01-18T06:29:18.949Z,73.40
2023-01-18T06:31:46.336Z,73.40
2023-01-18T06:34:13.797Z,73.40
2023-01-18T06:36:41.184Z,73.40
2023-01-18T06:39:08.608Z,73.50
2023-01-18T06:41:36.091Z,73.50
2023-01-18T06:44:03.907Z,73.70
2023-01-18T06:46:31.275Z,73.70
2023-01-18T06:48:58.644Z,73.90
2023-01-18T06:51:26.180Z,73.80
2023-01-18T06:53:53.535Z,73.80
2023-01-18T06:56:21.039Z,73.70
2023-01-18T06:58:48.413Z,73.80
2023-01-18T07:01:15.935Z,73.80
2023-01-18T07:03:43.350Z,73.80
2023-01-18T07:06:11.245Z,73.80
2023-01-18T07:08:40.118Z,73.90
2023-01-18T07:11:09.967Z,73.80
2023-01-18T07:13:43.341Z,73.80
2023-01-18T07:16:18.104Z,74.70
2023-01-18T07:18:47.733Z,73.90
2023-01-18T07:21:17.339Z,73.90
2023-01-18T07:23:45.001Z,74.00
2023-01-18T07:26:17.742Z,74.00
2023-01-18T07:28:46.008Z,74.00
2023-01-18T07:31:14.168Z,74.80
2023-01-18T07:33:41.948Z,74.10
2023-01-18T07:36:10.855Z,74.10
2023-01-18T07:38:38.906Z,74.20
2023-01-18T07:41:14.209Z,74.30
2023-01-18T07:43:43.758Z,74.30
2023-01-18T07:46:15.265Z,74.30
2023-01-18T07:48:42.991Z,74.30
2023-01-18T07:51:10.932Z,74.20
2023-01-18T07:53:39.408Z,74.30
2023-01-18T07:56:15.589Z,74.30
2023-01-18T07:58:43.607Z,74.40
2023-01-18T08:01:13.830Z,74.40
2023-01-18T08:03:43.513Z,74.40
2023-01-18T08:06:13.556Z,74.40
2023-01-18T08:08:40.987Z,74.30
2023-01-18T08:11:09.355Z,74.30
2023-01-18T08:13:36.885Z,74.30
2023-01-18T08:16:08.161Z,74.30
2023-01-18T08:18:35.694Z,74.40
2023-01-18T08:21:03.293Z,74.40
2023-01-18T08:23:30.747Z,74.50
2023-01-18T08:26:03.924Z,74.60
2023-01-18T08:28:31.829Z,74.50
2023-01-18T08:31:12.994Z,74.50
2023-01-18T08:33:42.703Z,74.70
2023-01-18T08:36:19.032Z,74.70
2023-01-18T08:38:59.464Z,74.60
2023-01-18T08:41:28.420Z,74.80
2023-01-18T08:43:57.184Z,74.80
2023-01-18T08:46:25.698Z,74.80
2023-01-18T08:48:55.870Z,74.70
2023-01-18T08:51:25.949Z,74.60
2023-01-18T08:53:57.195Z,74.70
2023-01-18T08:56:25.301Z,74.70
2023-01-18T08:58:52.988Z,74.70
2023-01-18T09:01:23.043Z,74.70
2023-01-18T09:03:54.230Z,74.60
2023-01-18T09:06:22.490Z,74.60
2023-01-18T09:08:50.286Z,74.50
2023-01-18T09:11:18.666Z,74.50
2023-01-18T09:13:59.726Z,74.30
2023-01-18T09:16:29.136Z,74.20
2023-01-18T09:18:57.597Z,74.10
2023-01-18T09:21:25.531Z,74.10
2023-01-18T09:23:53.064Z,74.10
2023-01-18T09:26:21.132Z,74.10
2023-01-18T09:28:53.485Z,74.00
2023-01-18T09:31:23.623Z,74.00
2023-01-18T09:33:54.199Z,74.00
2023-01-18T09:36:28.397Z,74.10
2023-01-18T09:38:56.633Z,74.10
2023-01-18T09:41:33.218Z,74.00
2023-01-18T09:44:18.064Z,73.80
2023-01-18T09:46:48.110Z,73.70
2023-01-18T09:49:23.476Z,73.70
2023-01-18T09:52:05.376Z,73.80
2023-01-18T09:54:46.657Z,73.70
2023-01-18T09:57:44.737Z,73.80
2023-01-18T10:00:28.877Z,73.70
2023-01-18T10:03:02.910Z,73.60
2023-01-18T10:05:40.576Z,73.50
2023-01-18T10:08:27.641Z,73.60
2023-01-18T10:11:09.790Z,73.60
2023-01-18T10:13:47.585Z,73.50
2023-01-18T10:16:15.778Z,73.70
2023-01-18T10:18:46.055Z,73.70
2023-01-18T10:21:32.135Z,73.80
2023-01-18T10:24:11.806Z,73.90
2023-01-18T10:26:39.711Z,73.90
2023-01-18T10:29:12.827Z,74.00
2023-01-18T10:31:48.151Z,73.90
2023-01-18T10:34:22.237Z,74.00
2023-01-18T10:36:53.969Z,74.10
2023-01-18T10:39:25.552Z,73.90
2023-01-18T10:41:55.755Z,74.00
2023-01-18T10:44:23.820Z,74.00
2023-01-18T10:46:58.997Z,74.00
2023-01-18T10:49:41.476Z,74.00
2023-01-18T10:52:24.891Z,73.90
2023-01-18T10:55:01.804Z,73.80
2023-01-18T10:57:34.464Z,74.00
2023-01-18T11:00:12.259Z,73.90
2023-01-18T11:02:40.315Z,73.90
2023-01-18T11:05:21.151Z,73.20
2023-01-18T11:08:27.254Z,73.90
2023-01-18T11:11:52.517Z,73.90
2023-01-18T11:14:30.954Z,73.40
2023-01-18T11:17:11.312Z,73.20
2023-01-18T11:19:41.407Z,73.10
2023-01-18T11:22:16.004Z,73.00
2023-01-18T11:24:43.692Z,72.90
2023-01-18T11:27:20.258Z,73.00
2023-01-18T11:29:47.792Z,72.90
2023-01-18T11:32:26.752Z,72.80
2023-01-18T11:34:57.137Z,73.60
2023-01-18T11:37:39.879Z,72.80
2023-01-18T11:40:21.093Z,72.80
2023-01-18T11:42:53.183Z,72.80
2023-01-18T11:45:30.426Z,72.70
2023-01-18T11:48:23.820Z,72.70
2023-01-18T11:50:56.481Z,73.60
2023-01-18T11:53:38.173Z,72.80
2023-01-18T11:56:30.002Z,72.90
2023-01-18T11:58:57.858Z,73.00
2023-01-18T12:02:02.736Z,73.00
2023-01-18T12:04:40.309Z,73.10
2023-01-18T12:07:30.832Z,73.10
2023-01-18T12:10:00.911Z,73.00
2023-01-18T12:12:39.152Z,73.00
2023-01-18T12:15:27.619Z,73.00
2023-01-18T12:18:22.235Z,73.10
2023-01-18T12:21:01.622Z,73.10
2023-01-18T12:23:54.848Z,73.10
2023-01-18T12:26:38.251Z,73.00
2023-01-18T12:29:43.987Z,72.90
2023-01-18T12:32:38.988Z,72.90
2023-01-18T12:35:24.843Z,72.90
2023-01-18T12:38:17.532Z,72.90
2023-01-18T12:40:50.824Z,72.90
2023-01-18T12:43:37.749Z,72.80
2023-01-18T12:46:11.586Z,72.80
2023-01-18T12:48:48.202Z,73.00
2023-01-18T12:51:18.517Z,73.10
2023-01-18T12:53:51.735Z,73.10
2023-01-18T12:56:33.071Z,73.20
2023-01-18T12:59:04.964Z,73.40
2023-01-18T13:01:38.864Z,73.40
2023-01-18T13:04:14.715Z,73.30
2023-01-18T13:06:43.153Z,73.30
2023-01-18T13:09:17.634Z,73.50
2023-01-18T13:11:45.763Z,73.40
2023-01-18T13:14:33.728Z,73.40
2023-01-18T13:17:17.061Z,73.50
2023-01-18T13:19:54.477Z,73.50
2023-01-18T13:22:28.359Z,73.60
2023-01-18T13:25:48.494Z,73.80
2023-01-18T13:28:18.006Z,73.90
2023-01-18T13:31:00.770Z,73.90
2023-01-18T13:33:34.833Z,74.00
2023-01-18T13:36:05.994Z,74.10
2023-01-18T13:38:41.895Z,74.20
2023-01-18T13:41:16.230Z,74.20
2023-01-18T13:43:44.371Z,74.50
2023-01-18T13:46:15.398Z,74.30
2023-01-18T13:49:35.643Z,74.30
2023-01-18T13:52:31.714Z,74.30
2023-01-18T13:57:31.161Z,74.30
2023-01-18T14:00:00.106Z,74.30
2023-01-18T14:02:42.418Z,74.30
2023-01-18T14:05:28.741Z,74.20
2023-01-18T14:07:59.828Z,74.30
2023-01-18T14:10:47.667Z,74.20
2023-01-18T14:13:17.610Z,74.30
2023-01-18T14:15:54.484Z,74.30
2023-01-18T14:18:28.290Z,74.30
2023-01-18T14:21:10.958Z,74.30
2023-01-18T14:24:06.376Z,74.30
2023-01-18T14:26:37.044Z,74.50
2023-01-18T14:29:12.442Z,74.40
2023-01-18T14:31:48.751Z,74.50
2023-01-18T14:34:36.297Z,74.60
2023-01-18T14:37:22.925Z,74.60
2023-01-18T14:40:04.571Z,74.60
2023-01-18T14:42:34.978Z,74.70
2023-01-18T14:45:05.380Z,74.70
2023-01-18T14:47:34.553Z,74.60
2023-01-18T14:50:04.163Z,74.70
2023-01-18T14:52:34.204Z,74.80
2023-01-18T14:55:01.926Z,74.70
2023-01-18T14:57:29.342Z,74.70
2023-01-18T15:00:14.990Z,74.60
2023-01-18T15:02:43.745Z,74.60
2023-01-18T15:05:17.343Z,74.50
2023-01-18T15:07:47.787Z,74.60
2023-01-18T15:10:18.710Z,74.60
2023-01-18T15:12:51.570Z,74.60
2023-01-18T15:15:30.206Z,74.70
2023-01-18T15:18:05.489Z,74.70
2023-01-18T15:20:34.008Z,74.70
2023-01-18T15:23:02.053Z,74.80
2023-01-18T15:25:32.620Z,74.80
2023-01-18T15:28:14.966Z,74.80
2023-01-18T15:30:55.934Z,74.90
2023-01-18T15:33:26.023Z,74.90
2023-01-18T15:36:03.012Z,75.00
2023-01-18T15:38:30.858Z,75.20
2023-01-18T15:41:03.791Z,75.20
2023-01-18T15:43:38.554Z,75.20
2023-01-18T15:46:14.912Z,75.30
2023-01-18T15:48:52.067Z,75.30
2023-01-18T15:51:43.076Z,75.40
2023-01-18T15:54:21.193Z,75.30
2023-01-18T15:56:49.042Z,76.10
2023-01-18T15:59:25.424Z,75.40
2023-01-18T16:02:18.540Z,75.40
2023-01-18T16:04:46.443Z,75.40
2023-01-18T16:07:43.494Z,75.40
2023-01-18T16:10:27.922Z,75.50
2023-01-18T16:13:16.495Z,75.50
2023-01-18T16:15:44.378Z,75.50
2023-01-18T16:18:13.468Z,75.40
2023-01-18T16:20:41.138Z,75.50
2023-01-18T16:23:15.288Z,75.50
2023-01-18T16:25:43.464Z,75.60
2023-01-18T16:28:10.970Z,75.60
2023-01-18T16:30:39.779Z,75.70
2023-01-18T16:33:15.760Z,75.80
2023-01-18T16:35:44.685Z,75.90
2023-01-18T16:38:18.108Z,75.80
2023-01-18T16:40:48.939Z,75.90
2023-01-18T16:43:19.392Z,75.90
2023-01-18T16:45:49.906Z,75.90
2023-01-18T16:48:23.396Z,75.90
2023-01-18T16:50:51.873Z,75.90
2023-01-18T16:53:19.802Z,75.80
2023-01-18T16:55:50.260Z,75.70
2023-01-18T16:58:21.383Z,75.70
2023-01-18T17:01:11.981Z,75.70
2023-01-18T17:03:40.415Z,75.80
2023-01-18T17:06:14.298Z,75.80
2023-01-18T17:08:41.918Z,75.90
2023-01-18T17:11:11.848Z,75.90
2023-01-18T17:13:39.959Z,75.90
2023-01-18T17:16:18.656Z,76.00
2023-01-18T17:18:46.731Z,75.90
2023-01-18T17:21:15.247Z,76.10
2023-01-18T17:23:42.679Z,76.10
2023-01-18T17:26:14.806Z,76.00
2023-01-18T17:28:42.364Z,75.90
2023-01-18T17:31:10.004Z,75.90
2023-01-18T17:33:40.612Z,75.90
2023-01-18T17:36:08.892Z,75.80
2023-01-18T17:38:36.928Z,75.90
2023-01-18T17:41:05.360Z,76.00
2023-01-18T17:43:34.676Z,76.00
2023-01-18T17:46:03.798Z,76.00
2023-01-18T17:48:31.107Z,75.90
2023-01-18T17:50:58.737Z,75.90
2023-01-18T17:53:26.427Z,75.90
2023-01-18T17:55:53.964Z,75.80
2023-01-18T17:58:21.333Z,75.80
2023-01-18T18:00:48.881Z,75.90
2023-01-18T18:03:16.821Z,75.90
2023-01-18T18:05:45.363Z,76.00
2023-01-18T18:08:12.846Z,76.00
2023-01-18T18:10:43.186Z,76.10
2023-01-18T18:13:10.609Z,76.20
2023-01-18T18:15:38.058Z,76.20
2023-01-18T18:18:09.504Z,76.10
2023-01-18T18:20:40.001Z,76.10
2023-01-18T18:23:07.849Z,76.10
2023-01-18T18:25:35.361Z,76.10
2023-01-18T18:28:02.764Z,76.10
2023-01-18T18:30:30.516Z,76.20
2023-01-18T18:32:58.310Z,76.20
2023-01-18T18:35:26.671Z,76.20
2023-01-18T18:37:55.380Z,76.10
2023-01-18T18:40:24.071Z,76.10
2023-01-18T18:43:07.550Z,76.00
2023-01-18T18:45:35.239Z,75.80
2023-01-18T18:48:03.143Z,75.90
2023-01-18T18:50:31.106Z,75.90
2023-01-18T18:52:59.205Z,75.90
2023-01-18T18:55:26.847Z,75.80
2023-01-18T18:57:54.308Z,75.90
2023-01-18T19:00:22.053Z,75.90
2023-01-18T19:02:49.566Z,75.90
2023-01-18T19:05:16.947Z,75.80
2023-01-18T19:07:46.936Z,75.80
2023-01-18T19:10:15.764Z,75.70
2023-01-18T19:12:43.131Z,75.70
2023-01-18T19:15:10.902Z,75.70
2023-01-18T19:17:38.341Z,75.70
2023-01-18T19:20:07.374Z,75.70
2023-01-18T19:22:37.776Z,75.60
2023-01-18T19:25:06.140Z,75.80
2023-01-18T19:27:34.172Z,75.30
2023-01-18T19:30:01.589Z,75.30
2023-01-18T19:32:29.390Z,75.30
2023-01-18T19:34:56.728Z,75.40
2023-01-18T19:37:24.161Z,75.50
2023-01-18T19:39:51.622Z,75.50
2023-01-18T19:42:18.979Z,75.60
2023-01-18T19:44:46.424Z,75.60
2023-01-18T19:47:13.948Z,75.70
2023-01-18T19:49:43.054Z,75.50
2023-01-18T19:52:10.472Z,75.30
2023-01-18T19:54:37.894Z,75.20
2023-01-18T19:57:05.970Z,75.10
2023-01-18T19:59:33.355Z,75.00
2023-01-18T20:02:00.993Z,75.10
2023-01-18T20:04:28.993Z,75.10
2023-01-18T20:06:56.577Z,75.30
2023-01-18T20:09:35.063Z,75.50
2023-01-18T20:12:12.389Z,75.50
2023-01-18T20:14:44.723Z,75.50
2023-01-18T20:17:14.372Z,75.60
2023-01-18T20:19:44.085Z,75.60
2023-01-18T20:22:11.752Z,75.60
2023-01-18T20:24:39.157Z,75.70
2023-01-18T20:27:15.957Z,75.80
2023-01-18T20:29:44.432Z,75.90
2023-01-18T20:32:16.707Z,75.80
2023-01-18T20:34:46.678Z,75.70
2023-01-18T20:37:15.909Z,75.70
2023-01-18T20:39:43.546Z,75.70
2023-01-18T20:42:10.827Z,75.70
2023-01-18T20:44:40.368Z,75.60
2023-01-18T20:47:07.799Z,75.60
2023-01-18T20:49:38.990Z,75.60
2023-01-18T20:52:07.638Z,75.70
2023-01-18T20:54:36.312Z,75.60
2023-01-18T20:57:07.008Z,75.60
2023-01-18T20:59:34.494Z,76.00
2023-01-18T21:02:03.001Z,75.70
2023-01-18T21:04:30.611Z,75.70
2023-01-18T21:06:58.275Z,75.80
2023-01-18T21:09:25.918Z,75.90
2023-01-18T21:11:53.399Z,75.90
2023-01-18T21:14:20.925Z,75.80
2023-01-18T21:16:48.670Z,75.70
2023-01-18T21:19:16.229Z,75.70
2023-01-18T21:21:44.575Z,75.70
2023-01-18T21:24:12.363Z,76.60
2023-01-18T21:26:39.826Z,75.80
2023-01-18T21:29:07.089Z,75.80
2023-01-18T21:31:34.586Z,75.90
2023-01-18T21:34:02.101Z,75.90
2023-01-18T21:36:29.679Z,75.90
2023-01-18T21:38:57.007Z,75.90
2023-01-18T21:41:43.257Z,75.90
2023-01-18T21:44:30.891Z,75.80
2023-01-18T21:46:59.001Z,75.70
2023-01-18T21:50:15.454Z,75.70
2023-01-18T21:52:51.622Z,75.70
2023-01-18T21:55:20.014Z,76.50
2023-01-18T21:58:07.442Z,75.60
2023-01-18T22:00:39.187Z,75.60
2023-01-18T22:03:06.951Z,75.50
2023-01-18T22:05:34.359Z,75.30
2023-01-18T22:08:02.103Z,75.20
2023-01-18T22:10:29.721Z,75.00
2023-01-18T22:12:57.173Z,74.90
2023-01-18T22:15:24.700Z,74.90
2023-01-18T22:17:52.104Z,75.00
2023-01-18T22:20:19.791Z,75.00
2023-01-18T22:22:48.316Z,75.10
2023-01-18T22:25:15.877Z,75.20
2023-01-18T22:27:43.261Z,75.20
2023-01-18T22:30:11.214Z,75.30
2023-01-18T22:32:38.541Z,75.20
2023-01-18T22:35:06.116Z,75.20
2023-01-18T22:37:33.646Z,75.00
2023-01-18T22:40:01.184Z,75.40
2023-01-18T22:42:28.559Z,75.00
2023-01-18T22:44:55.975Z,74.90
2023-01-18T22:47:23.417Z,74.90
2023-01-18T22:49:50.784Z,75.00
2023-01-18T22:52:18.197Z,75.10
2023-01-18T22:54:45.652Z,75.20
2023-01-18T22:57:13.035Z,75.30
2023-01-18T22:59:40.405Z,75.30
2023-01-18T23:02:07.860Z,75.30
2023-01-18T23:04:35.281Z,75.10
2023-01-18T23:07:02.692Z,75.00
2023-01-18T23:09:30.440Z,74.90
2023-01-18T23:11:57.928Z,74.80
2023-01-18T23:14:43.977Z,74.90
2023-01-18T23:17:30.502Z,74.80
2023-01-18T23:19:57.896Z,74.90
2023-01-18T23:22:26.498Z,75.00
2023-01-18T23:24:53.849Z,75.50
2023-01-18T23:27:21.067Z,75.20
2023-01-18T23:29:55.064Z,75.30
2023-01-18T23:32:27.233Z,75.10
2023-01-18T23:34:55.368Z,74.90
2023-01-18T23:37:23.264Z,74.80
2023-01-18T23:40:09.203Z,74.50
2023-01-18T23:42:55.459Z,74.30
2023-01-18T23:45:41.538Z,73.90
2023-01-18T23:48:30.579Z,73.70
2023-01-18T23:51:16.790Z,73.80
2023-01-18T23:54:02.991Z,73.90
2023-01-18T23:56:30.620Z,74.30
2023-01-18T23:58:58.362Z,74.70
